DLH4412 KATL-EDDM
Flight info
| Callsign | DLH4412 |
|---|---|
| Flight time | N/A |
| Altitude | 35000 |
| Route | PLMMR3 BURGG Q22 BEARI DCT FAK DCT RBV Q430 ACK DCT ALLEX N535B UMESI/M082F380 DCT 5130N05000W 5330N04000W 5430N03000W 5430N02000W DCT NEBIN DCT OLGON/N0474F390 DCT ENJEX DCT ADHAV DCT AXNEF DCT ZIPWE DCT OZZIL DCT SAWPE Q63 CPT UL9 KONAN DCT KOK UL607 FERDI DCT REMBA UL607 SPI DCT MOVUM T109 HAREM/N0476F350 T104 ELMOX/N0444F270 T104 ROKIL ROKIL1A |
| Aircraft | A346/H-SDE2E3FGHIJ3J4J5M1RWXY/LB1D1 |
Departure
| Time | 2026-05-08 08:01 |
|---|---|
| Airport | Hartsfield Jackson Atlanta International Airport (KATL) |
Arrival
| Time | N/A |
|---|---|
| Airport | Munich Airport (EDDM) |
| Time | Latitude | Longitude | Altitude | Speed | Heading |
|---|---|---|---|---|---|
| 2026-05-08 07:47 | 33.63949 | -84.43988 | 1044 ft | 0 kts | 91° |
| 2026-05-08 07:50 | 33.63949 | -84.43993 | 1044 ft | 3 kts | 91° |
| 2026-05-08 07:50 | 33.63950 | -84.44021 | 1044 ft | 4 kts | 102° |
| 2026-05-08 07:50 | 33.63957 | -84.44042 | 1045 ft | 4 kts | 136° |
| 2026-05-08 07:51 | 33.63973 | -84.44051 | 1045 ft | 4 kts | 174° |
| 2026-05-08 07:51 | 33.64000 | -84.44052 | 1045 ft | 4 kts | 182° |
| 2026-05-08 07:51 | 33.64012 | -84.44051 | 1045 ft | 0 kts | 180° |
| 2026-05-08 07:54 | 33.63980 | -84.44051 | 1044 ft | 10 kts | 180° |
| 2026-05-08 07:54 | 33.63906 | -84.44052 | 1044 ft | 11 kts | 180° |
| 2026-05-08 07:54 | 33.63823 | -84.44052 | 1044 ft | 13 kts | 180° |
| 2026-05-08 07:54 | 33.63732 | -84.44050 | 1044 ft | 13 kts | 174° |
| 2026-05-08 07:55 | 33.63669 | -84.43984 | 1044 ft | 14 kts | 102° |
| 2026-05-08 07:55 | 33.63665 | -84.43857 | 1044 ft | 16 kts | 91° |
| 2026-05-08 07:55 | 33.63664 | -84.43721 | 1044 ft | 16 kts | 90° |
| 2026-05-08 07:55 | 33.63664 | -84.43568 | 1043 ft | 21 kts | 90° |
| 2026-05-08 07:56 | 33.63665 | -84.43363 | 1043 ft | 27 kts | 90° |
| 2026-05-08 07:56 | 33.63664 | -84.43138 | 1043 ft | 27 kts | 90° |
| 2026-05-08 07:56 | 33.63664 | -84.42912 | 1043 ft | 27 kts | 90° |
| 2026-05-08 07:56 | 33.63663 | -84.42685 | 1044 ft | 27 kts | 93° |
| 2026-05-08 07:57 | 33.63656 | -84.42457 | 1044 ft | 27 kts | 90° |
| 2026-05-08 07:57 | 33.63656 | -84.42231 | 1044 ft | 27 kts | 90° |
| 2026-05-08 07:57 | 33.63656 | -84.41999 | 1044 ft | 28 kts | 90° |
| 2026-05-08 07:57 | 33.63655 | -84.41768 | 1043 ft | 28 kts | 90° |
| 2026-05-08 07:58 | 33.63655 | -84.41534 | 1043 ft | 28 kts | 89° |
| 2026-05-08 07:58 | 33.63656 | -84.41302 | 1043 ft | 28 kts | 90° |
| 2026-05-08 07:58 | 33.63657 | -84.41084 | 1043 ft | 20 kts | 90° |
| 2026-05-08 07:58 | 33.63656 | -84.40959 | 1043 ft | 13 kts | 90° |
| 2026-05-08 07:59 | 33.63644 | -84.40877 | 1044 ft | 8 kts | 134° |
| 2026-05-08 07:59 | 33.63583 | -84.40835 | 1044 ft | 12 kts | 169° |
| 2026-05-08 07:59 | 33.63496 | -84.40854 | 1044 ft | 13 kts | 226° |
| 2026-05-08 07:59 | 33.63470 | -84.40956 | 1044 ft | 13 kts | 267° |
| 2026-05-08 08:00 | 33.63472 | -84.41066 | 1043 ft | 3 kts | 270° |
| 2026-05-08 08:00 | 33.63472 | -84.41067 | 1043 ft | 0 kts | 270° |
| 2026-05-08 08:00 | 33.63473 | -84.41269 | 1043 ft | 53 kts | 269° |
| 2026-05-08 08:00 | 33.63473 | -84.41938 | 1044 ft | 106 kts | 270° |
| 2026-05-08 08:01 | 33.63470 | -84.43021 | 1043 ft | 153 kts | 269° |
| 2026-05-08 08:01 | 33.63470 | -84.44463 | 1083 ft | 185 kts | 272° |
| 2026-05-08 08:01 | 33.63468 | -84.45982 | 1636 ft | 182 kts | 271° |
| 2026-05-08 08:01 | 33.63397 | -84.47540 | 2148 ft | 189 kts | 261° |
| 2026-05-08 08:02 | 33.62917 | -84.49048 | 2616 ft | 197 kts | 247° |
| 2026-05-08 08:02 | 33.62254 | -84.50522 | 2986 ft | 205 kts | 245° |
| 2026-05-08 08:02 | 33.61548 | -84.52076 | 3256 ft | 218 kts | 245° |
| 2026-05-08 08:02 | 33.60827 | -84.53724 | 3541 ft | 231 kts | 246° |
| 2026-05-08 08:03 | 33.60073 | -84.55498 | 3787 ft | 247 kts | 246° |
| 2026-05-08 08:03 | 33.59106 | -84.57300 | 4061 ft | 266 kts | 225° |
| 2026-05-08 08:03 | 33.57485 | -84.58410 | 4555 ft | 276 kts | 195° |
| 2026-05-08 08:03 | 33.55568 | -84.58569 | 5306 ft | 276 kts | 182° |
| 2026-05-08 08:04 | 33.53664 | -84.58508 | 6003 ft | 276 kts | 184° |
| 2026-05-08 08:04 | 33.51742 | -84.58462 | 6641 ft | 278 kts | 185° |
| 2026-05-08 08:04 | 33.49791 | -84.58436 | 7290 ft | 280 kts | 184° |
| 2026-05-08 08:04 | 33.47843 | -84.57890 | 7860 ft | 298 kts | 156° |
| 2026-05-08 08:05 | 33.46255 | -84.56237 | 8462 ft | 314 kts | 126° |
| 2026-05-08 08:05 | 33.45474 | -84.53749 | 9027 ft | 326 kts | 95° |
| 2026-05-08 08:05 | 33.45433 | -84.51023 | 9609 ft | 331 kts | 87° |
| 2026-05-08 08:05 | 33.45530 | -84.48257 | 10138 ft | 337 kts | 86° |
| 2026-05-08 08:06 | 33.45611 | -84.45394 | 10518 ft | 350 kts | 88° |
| 2026-05-08 08:06 | 33.45641 | -84.42413 | 10785 ft | 365 kts | 89° |
| 2026-05-08 08:06 | 33.45635 | -84.39294 | 11065 ft | 380 kts | 90° |
| 2026-05-08 08:06 | 33.45652 | -84.36078 | 11306 ft | 395 kts | 84° |
| 2026-05-08 08:07 | 33.46382 | -84.32859 | 11517 ft | 403 kts | 58° |
| 2026-05-08 08:07 | 33.48055 | -84.30195 | 11779 ft | 406 kts | 40° |
| 2026-05-08 08:07 | 33.50106 | -84.27780 | 12109 ft | 417 kts | 38° |
| 2026-05-08 08:07 | 33.52227 | -84.25331 | 12620 ft | 423 kts | 38° |
| 2026-05-08 08:08 | 33.54326 | -84.22866 | 13245 ft | 426 kts | 38° |
| 2026-05-08 08:08 | 33.56425 | -84.20360 | 13814 ft | 431 kts | 39° |
| 2026-05-08 08:08 | 33.58569 | -84.17776 | 14329 ft | 435 kts | 39° |
| 2026-05-08 08:08 | 33.60682 | -84.15209 | 14833 ft | 439 kts | 39° |
| 2026-05-08 08:09 | 33.62857 | -84.12558 | 15341 ft | 443 kts | 39° |
| 2026-05-08 08:09 | 33.65032 | -84.09900 | 15861 ft | 447 kts | 39° |
| 2026-05-08 08:09 | 33.67195 | -84.07251 | 16369 ft | 450 kts | 39° |
| 2026-05-08 08:09 | 33.69428 | -84.04517 | 16876 ft | 455 kts | 39° |
| 2026-05-08 08:10 | 33.71632 | -84.01816 | 17370 ft | 459 kts | 38° |
| 2026-05-08 08:10 | 33.73876 | -83.99063 | 17859 ft | 463 kts | 38° |
| 2026-05-08 08:10 | 33.76131 | -83.96296 | 18353 ft | 467 kts | 38° |
| 2026-05-08 08:10 | 33.78427 | -83.93476 | 18765 ft | 471 kts | 38° |
| 2026-05-08 08:11 | 33.80714 | -83.90666 | 19215 ft | 475 kts | 38° |
| 2026-05-08 08:11 | 33.83048 | -83.87797 | 19650 ft | 478 kts | 38° |
| 2026-05-08 08:11 | 33.85393 | -83.84909 | 20067 ft | 482 kts | 38° |
| 2026-05-08 08:11 | 33.87729 | -83.82029 | 20484 ft | 486 kts | 38° |
| 2026-05-08 08:12 | 33.90108 | -83.79094 | 20906 ft | 490 kts | 38° |
| 2026-05-08 08:12 | 33.92480 | -83.76165 | 21352 ft | 493 kts | 39° |
| 2026-05-08 08:12 | 33.94842 | -83.73113 | 21762 ft | 499 kts | 42° |
| 2026-05-08 08:12 | 33.97062 | -83.69877 | 22188 ft | 506 kts | 46° |
| 2026-05-08 08:13 | 33.99203 | -83.66456 | 22582 ft | 511 kts | 47° |
| 2026-05-08 08:13 | 34.01343 | -83.62944 | 22956 ft | 516 kts | 48° |
| 2026-05-08 08:13 | 34.03447 | -83.59473 | 23319 ft | 519 kts | 48° |
| 2026-05-08 08:13 | 34.05603 | -83.55925 | 23693 ft | 523 kts | 48° |
| 2026-05-08 08:14 | 34.07743 | -83.52411 | 23977 ft | 527 kts | 47° |
| 2026-05-08 08:14 | 34.09932 | -83.48825 | 24300 ft | 530 kts | 47° |
| 2026-05-08 08:14 | 34.12114 | -83.45253 | 24635 ft | 533 kts | 47° |
| 2026-05-08 08:14 | 34.14346 | -83.41597 | 24971 ft | 536 kts | 47° |
| 2026-05-08 08:15 | 34.16576 | -83.37943 | 25294 ft | 539 kts | 47° |
| 2026-05-08 08:15 | 34.18787 | -83.34316 | 25615 ft | 542 kts | 47° |
| 2026-05-08 08:15 | 34.21015 | -83.30659 | 25933 ft | 545 kts | 47° |
| 2026-05-08 08:15 | 34.23282 | -83.26933 | 26245 ft | 548 kts | 47° |
| 2026-05-08 08:16 | 34.25566 | -83.23176 | 26558 ft | 551 kts | 47° |
| 2026-05-08 08:16 | 34.27839 | -83.19433 | 26851 ft | 554 kts | 47° |
| 2026-05-08 08:16 | 34.30117 | -83.15675 | 27173 ft | 557 kts | 47° |
| 2026-05-08 08:16 | 34.32392 | -83.11931 | 27464 ft | 560 kts | 47° |
| 2026-05-08 08:17 | 34.34729 | -83.08110 | 27760 ft | 563 kts | 47° |
| 2026-05-08 08:17 | 34.37068 | -83.04293 | 28068 ft | 565 kts | 47° |
| 2026-05-08 08:17 | 34.39401 | -83.00481 | 28497 ft | 565 kts | 47° |
| 2026-05-08 08:17 | 34.41741 | -82.96647 | 28983 ft | 564 kts | 47° |
| 2026-05-08 08:18 | 34.44082 | -82.92807 | 29435 ft | 563 kts | 47° |
| 2026-05-08 08:18 | 34.46388 | -82.89020 | 29840 ft | 564 kts | 47° |
| 2026-05-08 08:18 | 34.47933 | -82.86481 | 30097 ft | 564 kts | 47° |
| 2026-05-08 08:18 | 34.51041 | -82.81369 | 30548 ft | 564 kts | 47° |
| 2026-05-08 08:19 | 34.52602 | -82.78798 | 30779 ft | 564 kts | 46° |
| 2026-05-08 08:19 | 34.55706 | -82.73677 | 31236 ft | 564 kts | 46° |
| 2026-05-08 08:19 | 34.57253 | -82.71124 | 31478 ft | 564 kts | 46° |
| 2026-05-08 08:19 | 34.60344 | -82.66017 | 31939 ft | 563 kts | 46° |
| 2026-05-08 08:20 | 34.61888 | -82.63464 | 32172 ft | 563 kts | 46° |
| 2026-05-08 08:20 | 34.64219 | -82.59605 | 32500 ft | 563 kts | 46° |
| 2026-05-08 08:20 | 34.66517 | -82.55798 | 32836 ft | 562 kts | 46° |
| 2026-05-08 08:20 | 34.68825 | -82.51918 | 33181 ft | 563 kts | 46° |
| 2026-05-08 08:21 | 34.71115 | -82.48018 | 33485 ft | 563 kts | 46° |
| 2026-05-08 08:21 | 34.73366 | -82.44169 | 33751 ft | 564 kts | 46° |
| 2026-05-08 08:21 | 34.75656 | -82.40253 | 34001 ft | 566 kts | 46° |
| 2026-05-08 08:21 | 34.77926 | -82.36371 | 34187 ft | 567 kts | 46° |
| 2026-05-08 08:22 | 34.80223 | -82.32441 | 34397 ft | 568 kts | 46° |
| 2026-05-08 08:22 | 34.82523 | -82.28505 | 34604 ft | 569 kts | 46° |
| 2026-05-08 08:22 | 34.84801 | -82.24604 | 34804 ft | 570 kts | 46° |
| 2026-05-08 08:22 | 34.87119 | -82.20628 | 35013 ft | 571 kts | 46° |
| 2026-05-08 08:23 | 34.89400 | -82.16716 | 35053 ft | 575 kts | 46° |
| 2026-05-08 08:23 | 34.94090 | -82.08666 | 35058 ft | 585 kts | 46° |
| 2026-05-08 08:24 | 34.98818 | -82.00515 | 35065 ft | 588 kts | 46° |
| 2026-05-08 08:24 | 35.03546 | -81.92340 | 35059 ft | 588 kts | 46° |
| 2026-05-08 08:25 | 35.08417 | -81.84365 | 35052 ft | 586 kts | 44° |
| 2026-05-08 08:25 | 35.13370 | -81.76469 | 35060 ft | 586 kts | 44° |
| 2026-05-08 08:26 | 35.18308 | -81.68532 | 35073 ft | 586 kts | 44° |
| 2026-05-08 08:26 | 35.23232 | -81.60558 | 35074 ft | 587 kts | 44° |
| 2026-05-08 08:27 | 35.28142 | -81.52579 | 35077 ft | 589 kts | 44° |
| 2026-05-08 08:27 | 35.33054 | -81.44578 | 35068 ft | 589 kts | 44° |
| 2026-05-08 08:28 | 35.38011 | -81.36487 | 35046 ft | 590 kts | 44° |
| 2026-05-08 08:28 | 35.42955 | -81.28399 | 35059 ft | 591 kts | 44° |
| 2026-05-08 08:29 | 35.47882 | -81.20320 | 35061 ft | 591 kts | 44° |
| 2026-05-08 08:29 | 35.52822 | -81.12202 | 35065 ft | 592 kts | 44° |
| 2026-05-08 08:30 | 35.57735 | -81.04108 | 35059 ft | 593 kts | 44° |
| 2026-05-08 08:30 | 35.65142 | -80.91868 | 35068 ft | 595 kts | 44° |
| 2026-05-08 08:31 | 35.70110 | -80.83635 | 35072 ft | 596 kts | 44° |
| 2026-05-08 08:31 | 35.75051 | -80.75428 | 35061 ft | 597 kts | 44° |
| 2026-05-08 08:32 | 35.79997 | -80.67195 | 35052 ft | 598 kts | 44° |
| 2026-05-08 08:32 | 35.84936 | -80.58952 | 35047 ft | 598 kts | 44° |
| 2026-05-08 08:33 | 35.89876 | -80.50688 | 35050 ft | 599 kts | 44° |
| 2026-05-08 08:33 | 35.94808 | -80.42416 | 35048 ft | 600 kts | 44° |
| 2026-05-08 08:34 | 35.99777 | -80.34068 | 35050 ft | 600 kts | 44° |
| 2026-05-08 08:34 | 36.04711 | -80.25785 | 35042 ft | 601 kts | 44° |
| 2026-05-08 08:35 | 36.09657 | -80.17462 | 35043 ft | 601 kts | 44° |
| 2026-05-08 08:35 | 36.14616 | -80.09095 | 35032 ft | 602 kts | 44° |
| 2026-05-08 08:36 | 36.19560 | -80.00727 | 35041 ft | 603 kts | 44° |
| 2026-05-08 08:36 | 36.24520 | -79.92315 | 35043 ft | 603 kts | 44° |
| 2026-05-08 08:37 | 36.29484 | -79.83878 | 35060 ft | 604 kts | 44° |
| 2026-05-08 08:37 | 36.34454 | -79.75409 | 35065 ft | 604 kts | 44° |
| 2026-05-08 08:38 | 36.39398 | -79.66966 | 35059 ft | 605 kts | 44° |
| 2026-05-08 08:38 | 36.44353 | -79.58481 | 35050 ft | 606 kts | 44° |
| 2026-05-08 08:39 | 36.49284 | -79.50014 | 35052 ft | 606 kts | 43° |
| 2026-05-08 08:39 | 36.54248 | -79.41470 | 35058 ft | 606 kts | 43° |
| 2026-05-08 08:40 | 36.59209 | -79.32911 | 35049 ft | 607 kts | 43° |
| 2026-05-08 08:40 | 36.64140 | -79.24385 | 35056 ft | 607 kts | 43° |
| 2026-05-08 08:41 | 36.69061 | -79.15852 | 35052 ft | 607 kts | 43° |
| 2026-05-08 08:41 | 36.73985 | -79.07292 | 35043 ft | 607 kts | 43° |
| 2026-05-08 08:42 | 36.78912 | -78.98707 | 35030 ft | 608 kts | 43° |
| 2026-05-08 08:42 | 36.83799 | -78.90162 | 35030 ft | 608 kts | 43° |
| 2026-05-08 08:43 | 36.88695 | -78.81527 | 35039 ft | 608 kts | 43° |
| 2026-05-08 08:43 | 36.93580 | -78.72877 | 35043 ft | 608 kts | 43° |
| 2026-05-08 08:44 | 36.98456 | -78.64227 | 35049 ft | 608 kts | 43° |
| 2026-05-08 08:44 | 37.03330 | -78.55562 | 35040 ft | 608 kts | 43° |
| 2026-05-08 08:45 | 37.08208 | -78.46867 | 35033 ft | 607 kts | 44° |
| 2026-05-08 08:45 | 37.13060 | -78.38199 | 35036 ft | 606 kts | 44° |
| 2026-05-08 08:46 | 37.17904 | -78.29548 | 35025 ft | 604 kts | 42° |
| 2026-05-08 08:46 | 37.23130 | -78.21506 | 35035 ft | 588 kts | 34° |
| 2026-05-08 08:47 | 37.28794 | -78.14122 | 35038 ft | 583 kts | 32° |
| 2026-05-08 08:47 | 37.34504 | -78.06813 | 35035 ft | 582 kts | 32° |
| 2026-05-08 08:48 | 37.40122 | -77.99515 | 35033 ft | 583 kts | 33° |
| 2026-05-08 08:48 | 37.45774 | -77.92112 | 35043 ft | 582 kts | 33° |
| 2026-05-08 08:49 | 37.51369 | -77.84762 | 35042 ft | 582 kts | 33° |
| 2026-05-08 08:49 | 37.57105 | -77.77696 | 35041 ft | 575 kts | 30° |
| 2026-05-08 08:50 | 37.62959 | -77.70803 | 35058 ft | 573 kts | 30° |
| 2026-05-08 08:50 | 37.68783 | -77.63936 | 35064 ft | 573 kts | 30° |
| 2026-05-08 08:51 | 37.74586 | -77.57051 | 35063 ft | 572 kts | 30° |
| 2026-05-08 08:51 | 37.80374 | -77.50155 | 35057 ft | 572 kts | 31° |
| 2026-05-08 08:52 | 37.86153 | -77.43251 | 35054 ft | 571 kts | 31° |
| 2026-05-08 08:52 | 37.91962 | -77.36298 | 35046 ft | 571 kts | 31° |
| 2026-05-08 08:53 | 37.97723 | -77.29385 | 35038 ft | 571 kts | 31° |
| 2026-05-08 08:53 | 38.03530 | -77.22402 | 35033 ft | 571 kts | 31° |
| 2026-05-08 08:54 | 38.09261 | -77.15494 | 35028 ft | 570 kts | 31° |
| 2026-05-08 08:54 | 38.15044 | -77.08508 | 35020 ft | 570 kts | 32° |
| 2026-05-08 08:55 | 38.20772 | -77.01571 | 35021 ft | 570 kts | 32° |
| 2026-05-08 08:55 | 38.26522 | -76.94593 | 35017 ft | 569 kts | 32° |
| 2026-05-08 08:56 | 38.32210 | -76.87674 | 35014 ft | 569 kts | 32° |
| 2026-05-08 08:56 | 38.37952 | -76.80673 | 35004 ft | 569 kts | 32° |
| 2026-05-08 08:57 | 38.43670 | -76.73685 | 35010 ft | 569 kts | 32° |
| 2026-05-08 08:57 | 38.49386 | -76.66683 | 35012 ft | 569 kts | 32° |
| 2026-05-08 08:58 | 38.55097 | -76.59672 | 35009 ft | 569 kts | 32° |
| 2026-05-08 08:58 | 38.60817 | -76.52633 | 34988 ft | 569 kts | 33° |
| 2026-05-08 08:59 | 38.66513 | -76.45608 | 34993 ft | 569 kts | 33° |
| 2026-05-08 08:59 | 38.72211 | -76.38564 | 35004 ft | 569 kts | 33° |
| 2026-05-08 09:00 | 38.77904 | -76.31508 | 35004 ft | 569 kts | 33° |
| 2026-05-08 09:00 | 38.83573 | -76.24466 | 35007 ft | 569 kts | 33° |
| 2026-05-08 09:01 | 38.89289 | -76.17350 | 35010 ft | 569 kts | 33° |
| 2026-05-08 09:01 | 38.94963 | -76.10271 | 35009 ft | 568 kts | 33° |
| 2026-05-08 09:02 | 39.00648 | -76.03160 | 34999 ft | 568 kts | 34° |
| 2026-05-08 09:02 | 39.06293 | -75.96081 | 34989 ft | 567 kts | 34° |
| 2026-05-08 09:03 | 39.11934 | -75.88991 | 34971 ft | 567 kts | 34° |
| 2026-05-08 09:03 | 39.17569 | -75.81893 | 34977 ft | 566 kts | 34° |
| 2026-05-08 09:04 | 39.23195 | -75.74789 | 34979 ft | 566 kts | 34° |
| 2026-05-08 09:04 | 39.28817 | -75.67672 | 34981 ft | 565 kts | 35° |
| 2026-05-08 09:05 | 39.34438 | -75.60540 | 34969 ft | 565 kts | 35° |
| 2026-05-08 09:05 | 39.40002 | -75.53464 | 34973 ft | 564 kts | 35° |
| 2026-05-08 09:06 | 39.45580 | -75.46353 | 34990 ft | 563 kts | 36° |
| 2026-05-08 09:06 | 39.51187 | -75.39188 | 34992 ft | 562 kts | 36° |
| 2026-05-08 09:07 | 39.56722 | -75.32097 | 34980 ft | 561 kts | 36° |
| 2026-05-08 09:07 | 39.62264 | -75.24981 | 34977 ft | 561 kts | 36° |
| 2026-05-08 09:08 | 39.67823 | -75.17826 | 34989 ft | 560 kts | 36° |
| 2026-05-08 09:08 | 39.73369 | -75.10672 | 34996 ft | 560 kts | 36° |
| 2026-05-08 09:09 | 39.78871 | -75.03556 | 34987 ft | 560 kts | 37° |
| 2026-05-08 09:09 | 39.84398 | -74.96391 | 34992 ft | 559 kts | 37° |
| 2026-05-08 09:10 | 39.89927 | -74.89207 | 35003 ft | 559 kts | 37° |
| 2026-05-08 09:10 | 39.95415 | -74.82058 | 34998 ft | 559 kts | 37° |
| 2026-05-08 09:11 | 40.00944 | -74.74838 | 34997 ft | 559 kts | 37° |
| 2026-05-08 09:11 | 40.06430 | -74.67658 | 34990 ft | 560 kts | 37° |
| 2026-05-08 09:12 | 40.11972 | -74.60385 | 34988 ft | 560 kts | 37° |
| 2026-05-08 09:12 | 40.17105 | -74.52646 | 34976 ft | 570 kts | 47° |
| 2026-05-08 09:13 | 40.21342 | -74.43774 | 34962 ft | 579 kts | 58° |
| 2026-05-08 09:13 | 40.24495 | -74.33980 | 34965 ft | 586 kts | 67° |
| 2026-05-08 09:14 | 40.27071 | -74.23828 | 34973 ft | 587 kts | 68° |
| 2026-05-08 09:14 | 40.29212 | -74.15382 | 34973 ft | 588 kts | 68° |
| 2026-05-08 09:15 | 40.31845 | -74.05250 | 34973 ft | 588 kts | 68° |
| 2026-05-08 09:15 | 40.34507 | -73.95046 | 34958 ft | 588 kts | 68° |
| 2026-05-08 09:16 | 40.37161 | -73.84810 | 34951 ft | 588 kts | 68° |
| 2026-05-08 09:16 | 40.39781 | -73.74653 | 34954 ft | 588 kts | 68° |
| 2026-05-08 09:17 | 40.42385 | -73.64515 | 34956 ft | 588 kts | 68° |